createdAt,value
2022-11-29T00:01:40.867Z,100811.15
2022-11-29T00:04:08.839Z,100806.63
2022-11-29T00:06:37.445Z,100805.61
2022-11-29T00:09:08.922Z,100807.69
2022-11-29T00:11:57.053Z,100805.70
2022-11-29T00:14:27.642Z,100804.64
2022-11-29T00:17:02.031Z,100804.86
2022-11-29T00:19:35.330Z,100806.40
2022-11-29T00:22:04.040Z,100804.49
2022-11-29T00:24:32.663Z,100803.20
2022-11-29T00:27:01.510Z,100805.77
2022-11-29T00:29:30.465Z,100808.73
2022-11-29T00:31:59.158Z,100810.42
2022-11-29T00:34:27.193Z,100809.30
2022-11-29T00:36:55.117Z,100806.27
2022-11-29T00:39:23.311Z,100805.95
2022-11-29T00:41:51.273Z,100808.44
2022-11-29T00:44:20.578Z,100807.89
2022-11-29T00:46:49.668Z,100805.55
2022-11-29T00:49:17.639Z,100804.62
2022-11-29T00:51:46.794Z,100803.16
2022-11-29T00:54:16.015Z,100798.69
2022-11-29T00:56:43.859Z,100796.84
2022-11-29T00:59:11.787Z,100797.01
2022-11-29T01:01:39.833Z,100799.04
2022-11-29T01:04:07.772Z,100795.46
2022-11-29T01:06:35.621Z,100795.69
2022-11-29T01:09:04.399Z,100796.79
2022-11-29T01:11:32.416Z,100795.89
2022-11-29T01:14:02.190Z,100795.72
2022-11-29T01:16:31.934Z,100797.23
2022-11-29T01:19:00.613Z,100793.90
2022-11-29T01:21:28.851Z,100791.18
2022-11-29T01:23:57.538Z,100784.96
2022-11-29T01:26:28.199Z,100779.27
2022-11-29T01:28:58.610Z,100773.92
2022-11-29T01:31:30.258Z,100775.21
2022-11-29T01:34:02.445Z,100772.48
2022-11-29T01:36:30.834Z,100776.72
2022-11-29T01:39:00.727Z,100778.00
2022-11-29T01:41:32.014Z,100777.33
2022-11-29T01:44:12.059Z,100773.71
2022-11-29T01:46:42.623Z,100774.95
2022-11-29T01:49:22.946Z,100769.22
2022-11-29T01:51:55.678Z,100767.18
2022-11-29T01:54:23.739Z,100766.94
2022-11-29T01:56:53.253Z,100769.15
2022-11-29T01:59:25.709Z,100767.80
2022-11-29T02:01:59.751Z,100764.30
2022-11-29T02:04:37.176Z,100760.39
2022-11-29T02:07:05.344Z,100757.36
2022-11-29T02:09:33.678Z,100753.48
2022-11-29T02:12:16.692Z,100753.88
2022-11-29T02:14:49.565Z,100752.08
2022-11-29T02:18:05.165Z,100753.44
2022-11-29T02:21:09.889Z,100754.17
2022-11-29T02:24:01.363Z,100752.45
2022-11-29T02:27:06.982Z,100750.54
2022-11-29T02:29:53.686Z,100750.33
2022-11-29T02:32:58.971Z,100754.17
2022-11-29T02:35:39.413Z,100756.17
2022-11-29T02:38:16.546Z,100756.41
2022-11-29T02:41:22.457Z,100754.26
2022-11-29T02:44:22.651Z,100763.91
2022-11-29T02:47:03.430Z,100765.35
2022-11-29T02:49:57.031Z,100765.83
2022-11-29T02:52:46.945Z,100765.61
2022-11-29T02:55:44.132Z,100765.96
2022-11-29T02:58:41.507Z,100768.77
2022-11-29T03:01:23.505Z,100770.80
2022-11-29T03:04:13.981Z,100772.45
2022-11-29T03:07:00.573Z,100774.40
2022-11-29T03:09:38.936Z,100776.86
2022-11-29T03:12:45.408Z,100780.83
2022-11-29T03:15:28.294Z,100781.77
2022-11-29T03:18:33.463Z,100779.36
2022-11-29T03:21:08.884Z,100778.61
2022-11-29T03:23:51.524Z,100778.89
2022-11-29T03:26:52.467Z,100778.70
2022-11-29T03:29:45.687Z,100776.48
2022-11-29T03:32:35.354Z,100771.92
2022-11-29T03:35:09.233Z,100777.45
2022-11-29T03:37:49.116Z,100781.86
2022-11-29T03:40:21.284Z,100782.10
2022-11-29T03:43:01.728Z,100780.14
2022-11-29T03:45:39.103Z,100781.52
2022-11-29T03:48:29.425Z,100783.91
2022-11-29T03:51:03.958Z,100783.02
2022-11-29T03:53:50.530Z,100783.63
2022-11-29T03:56:39.631Z,100784.83
2022-11-29T03:59:44.392Z,100786.34
2022-11-29T04:02:44.933Z,100787.84
2022-11-29T04:05:40.333Z,100784.52
2022-11-29T04:08:08.198Z,100783.95
2022-11-29T04:10:48.020Z,100779.31
2022-11-29T04:13:37.436Z,100784.81
2022-11-29T04:16:39.750Z,100789.13
2022-11-29T04:19:38.284Z,100784.23
2022-11-29T04:22:15.354Z,100781.04
2022-11-29T04:24:52.126Z,100786.31
2022-11-29T04:27:31.072Z,100784.51
2022-11-29T04:30:11.549Z,100782.48
2022-11-29T04:32:59.014Z,100781.51
2022-11-29T04:35:35.785Z,100780.88
2022-11-29T04:38:22.248Z,100783.73
2022-11-29T04:41:09.816Z,100785.27
2022-11-29T04:43:43.872Z,100782.80
2022-11-29T04:46:14.707Z,100785.98
2022-11-29T04:49:01.985Z,100786.20
2022-11-29T04:51:59.016Z,100785.10
2022-11-29T04:54:31.182Z,100791.55
2022-11-29T04:57:37.699Z,100790.54
2022-11-29T05:00:09.952Z,100795.61
2022-11-29T05:02:56.239Z,100798.02
2022-11-29T05:05:36.446Z,100795.63
2022-11-29T05:08:17.526Z,100797.23
2022-11-29T05:11:08.631Z,100795.62
2022-11-29T05:14:07.641Z,100799.08
2022-11-29T05:17:13.899Z,100806.02
2022-11-29T05:20:04.893Z,100806.10
2022-11-29T05:22:46.497Z,100803.05
2022-11-29T05:25:50.443Z,100800.35
2022-11-29T05:28:29.276Z,100800.18
2022-11-29T05:31:11.376Z,100802.71
2022-11-29T05:34:08.308Z,100799.68
2022-11-29T05:36:36.163Z,100802.45
2022-11-29T05:39:13.177Z,100805.19
2022-11-29T05:41:44.083Z,100805.84
2022-11-29T05:44:19.790Z,100807.52
2022-11-29T05:47:01.836Z,100804.89
2022-11-29T05:49:51.731Z,100809.39
2022-11-29T05:52:31.901Z,100810.61
2022-11-29T05:55:09.046Z,100805.49
2022-11-29T05:58:17.385Z,100808.38
2022-11-29T06:01:20.824Z,100804.65
2022-11-29T06:04:14.606Z,100805.70
2022-11-29T06:07:14.268Z,100808.08
2022-11-29T06:09:53.489Z,100807.52
2022-11-29T06:12:23.842Z,100804.95
2022-11-29T06:15:10.530Z,100806.23
2022-11-29T06:17:48.764Z,100806.03
2022-11-29T06:20:47.909Z,100806.98
2022-11-29T06:23:37.193Z,100803.60
2022-11-29T06:26:18.580Z,100801.55
2022-11-29T06:29:03.674Z,100804.75
2022-11-29T06:31:43.457Z,100808.56
2022-11-29T06:34:55.802Z,100808.16
2022-11-29T06:37:49.380Z,100811.23
2022-11-29T06:40:18.180Z,100814.34
2022-11-29T06:42:46.016Z,100810.02
2022-11-29T06:45:14.994Z,100807.86
2022-11-29T06:47:45.075Z,100806.09
2022-11-29T06:50:45.578Z,100807.91
2022-11-29T06:53:32.525Z,100811.98
2022-11-29T06:56:26.822Z,100810.86
2022-11-29T06:59:16.455Z,100807.46
2022-11-29T07:01:51.410Z,100809.23
2022-11-29T07:04:25.348Z,100810.62
2022-11-29T07:06:53.471Z,100810.68
2022-11-29T07:09:28.175Z,100808.92
2022-11-29T07:11:56.292Z,100806.45
2022-11-29T07:14:24.469Z,100806.50
2022-11-29T07:17:03.649Z,100808.49
2022-11-29T07:19:44.036Z,100810.48
2022-11-29T07:22:34.196Z,100808.70
2022-11-29T07:25:09.086Z,100808.33
2022-11-29T07:27:36.870Z,100810.95
2022-11-29T07:30:30.280Z,100813.38
2022-11-29T07:33:20.816Z,100811.14
2022-11-29T07:35:48.700Z,100809.42
2022-11-29T07:38:45.917Z,100807.98
2022-11-29T07:41:35.732Z,100811.82
2022-11-29T07:44:33.137Z,100810.25
2022-11-29T07:47:01.152Z,100811.13
2022-11-29T07:49:29.128Z,100814.22
2022-11-29T07:51:57.040Z,100810.90
2022-11-29T07:54:26.175Z,100810.17
2022-11-29T07:56:53.991Z,100815.05
2022-11-29T07:59:21.823Z,100813.63
2022-11-29T08:01:49.710Z,100814.80
2022-11-29T08:04:17.672Z,100811.36
2022-11-29T08:06:45.589Z,100808.38
2022-11-29T08:09:13.467Z,100808.80
2022-11-29T08:11:42.066Z,100809.61
2022-11-29T08:14:10.509Z,100810.59
2022-11-29T08:16:38.478Z,100810.50
2022-11-29T08:19:06.980Z,100811.81
2022-11-29T08:21:34.927Z,100816.59
2022-11-29T08:24:02.876Z,100818.83
2022-11-29T08:26:31.804Z,100822.42
2022-11-29T08:28:59.977Z,100822.58
2022-11-29T08:31:27.824Z,100824.11
2022-11-29T08:33:55.783Z,100821.41
2022-11-29T08:36:23.644Z,100820.66
2022-11-29T08:38:55.831Z,100819.82
2022-11-29T08:41:30.267Z,100818.45
2022-11-29T08:43:58.205Z,100821.70
2022-11-29T08:46:46.083Z,100818.60
2022-11-29T08:49:14.742Z,100818.92
2022-11-29T08:51:42.639Z,100817.77
2022-11-29T08:54:10.637Z,100813.62
2022-11-29T08:59:27.102Z,100817.35
2022-11-29T09:01:55.127Z,100815.29
2022-11-29T09:04:23.042Z,100813.55
2022-11-29T09:06:50.956Z,100816.19
2022-11-29T09:09:19.026Z,100811.97
2022-11-29T09:11:49.394Z,100808.11
2022-11-29T09:14:17.902Z,100806.04
2022-11-29T09:16:45.903Z,100807.59
2022-11-29T09:19:14.584Z,100805.88
2022-11-29T09:21:42.480Z,100803.02
2022-11-29T09:24:10.798Z,100801.81
2022-11-29T09:26:40.671Z,100802.73
2022-11-29T09:29:09.251Z,100802.02
2022-11-29T09:31:38.041Z,100799.25
2022-11-29T09:34:05.823Z,100792.92
2022-11-29T09:36:33.740Z,100791.04
2022-11-29T09:39:02.977Z,100789.11
2022-11-29T09:42:04.345Z,100785.84
2022-11-29T09:44:35.086Z,100784.09
2022-11-29T09:47:27.874Z,100781.31
2022-11-29T09:50:26.864Z,100779.27
2022-11-29T09:53:13.574Z,100776.62
2022-11-29T09:56:07.763Z,100772.06
2022-11-29T09:58:44.923Z,100767.66
2022-11-29T10:01:27.030Z,100766.49
2022-11-29T10:04:01.735Z,100766.53
2022-11-29T10:06:38.945Z,100761.77
2022-11-29T10:09:27.440Z,100760.25
2022-11-29T10:12:15.000Z,100761.48
2022-11-29T10:14:56.845Z,100764.55
2022-11-29T10:17:42.589Z,100763.75
2022-11-29T10:20:27.237Z,100758.55
2022-11-29T10:23:02.538Z,100757.73
2022-11-29T10:25:45.370Z,100757.32
2022-11-29T10:28:17.359Z,100759.55
2022-11-29T10:30:45.496Z,100760.20
2022-11-29T10:33:21.193Z,100757.42
2022-11-29T10:35:52.901Z,100758.11
2022-11-29T10:38:30.840Z,100759.12
2022-11-29T10:41:13.573Z,100758.32
2022-11-29T10:43:43.142Z,100755.59
2022-11-29T10:46:21.219Z,100755.71
2022-11-29T10:48:49.177Z,100757.85
2022-11-29T10:51:18.151Z,100756.91
2022-11-29T10:53:46.809Z,100760.65
2022-11-29T10:56:24.279Z,100764.80
2022-11-29T10:59:05.372Z,100760.39
2022-11-29T11:01:38.428Z,100761.94
2022-11-29T11:04:10.055Z,100766.83
2022-11-29T11:06:56.500Z,100769.36
2022-11-29T11:09:30.403Z,100772.68
2022-11-29T11:12:02.901Z,100775.52
2022-11-29T11:14:34.561Z,100774.55
2022-11-29T11:17:22.991Z,100775.80
2022-11-29T11:20:20.278Z,100777.70
2022-11-29T11:23:00.963Z,100780.03
2022-11-29T11:25:34.543Z,100777.91
2022-11-29T11:28:20.857Z,100778.71
2022-11-29T11:30:53.825Z,100782.32
2022-11-29T11:33:26.838Z,100783.73
2022-11-29T11:36:19.208Z,100785.10
2022-11-29T11:38:57.951Z,100787.77
2022-11-29T11:41:48.479Z,100787.66
2022-11-29T11:44:52.436Z,100790.20
2022-11-29T11:47:29.548Z,100783.93
2022-11-29T11:50:00.489Z,100780.95
2022-11-29T11:52:50.318Z,100782.34
2022-11-29T11:55:21.576Z,100782.94
2022-11-29T11:58:10.384Z,100782.02
2022-11-29T12:01:05.067Z,100776.52
2022-11-29T12:03:52.592Z,100776.67
2022-11-29T12:06:25.454Z,100774.16
2022-11-29T12:09:00.761Z,100773.59
2022-11-29T12:11:38.074Z,100774.90
2022-11-29T12:14:07.965Z,100771.79
2022-11-29T12:16:39.125Z,100766.69
2022-11-29T12:19:21.476Z,100761.55
2022-11-29T12:21:56.007Z,100762.19
2022-11-29T12:24:33.157Z,100759.77
2022-11-29T12:27:04.933Z,100759.51
2022-11-29T12:29:35.046Z,100758.60
2022-11-29T12:32:08.933Z,100760.48
2022-11-29T12:35:00.266Z,100758.56
2022-11-29T12:37:37.427Z,100758.13
2022-11-29T12:40:21.587Z,100757.92
2022-11-29T12:43:21.094Z,100761.23
2022-11-29T12:46:03.921Z,100761.62
2022-11-29T12:49:01.585Z,100756.20
2022-11-29T12:51:32.474Z,100757.20
2022-11-29T12:54:06.398Z,100759.30
2022-11-29T12:56:41.379Z,100750.33
2022-11-29T12:59:23.574Z,100746.83
2022-11-29T13:02:10.268Z,100746.70
2022-11-29T13:05:07.520Z,100741.16
2022-11-29T13:07:57.206Z,100741.51
2022-11-29T13:10:29.054Z,100735.09
2022-11-29T13:13:04.706Z,100734.84
2022-11-29T13:15:46.529Z,100740.63
2022-11-29T13:18:18.676Z,100746.09
2022-11-29T13:21:07.225Z,100754.96
2022-11-29T13:24:12.556Z,100763.83
2022-11-29T13:26:41.990Z,100768.04
2022-11-29T13:29:16.532Z,100773.30
2022-11-29T13:31:46.813Z,100773.92
2022-11-29T13:34:27.031Z,100777.67
2022-11-29T13:37:10.498Z,100780.17
2022-11-29T13:40:17.005Z,100782.90
2022-11-29T13:42:49.700Z,100780.16
2022-11-29T13:45:33.612Z,100782.52
2022-11-29T13:48:24.937Z,100782.79
2022-11-29T13:51:18.954Z,100787.38
2022-11-29T13:53:49.159Z,100788.28
2022-11-29T13:56:32.768Z,100792.21
2022-11-29T13:59:05.830Z,100794.30
2022-11-29T14:01:46.471Z,100799.49
2022-11-29T14:04:24.206Z,100805.04
2022-11-29T14:07:18.578Z,100802.84
2022-11-29T14:09:59.597Z,100796.86
2022-11-29T14:12:50.857Z,100799.21
2022-11-29T14:15:22.857Z,100801.19
2022-11-29T14:17:57.868Z,100804.98
2022-11-29T14:20:27.928Z,100806.20
2022-11-29T14:23:09.646Z,100806.19
2022-11-29T14:25:51.477Z,100810.73
2022-11-29T14:28:23.170Z,100808.54
2022-11-29T14:31:02.026Z,100811.39
2022-11-29T14:33:37.325Z,100810.77
2022-11-29T14:36:25.414Z,100807.42
2022-11-29T14:39:07.923Z,100802.16
2022-11-29T14:41:51.097Z,100802.62
2022-11-29T14:44:24.260Z,100802.51
2022-11-29T14:47:08.089Z,100799.23
2022-11-29T14:49:44.664Z,100797.70
2022-11-29T14:52:15.411Z,100786.34
2022-11-29T14:55:06.356Z,100773.11
2022-11-29T14:58:13.632Z,100761.02
2022-11-29T15:00:47.449Z,100756.67
2022-11-29T15:03:42.730Z,100751.52
2022-11-29T15:06:23.385Z,100753.46
2022-11-29T15:09:02.718Z,100757.73
2022-11-29T15:11:34.250Z,100755.52
2022-11-29T15:14:19.486Z,100760.60
2022-11-29T15:17:03.917Z,100769.78
2022-11-29T15:20:02.955Z,100777.02
2022-11-29T15:22:36.823Z,100778.28
2022-11-29T15:25:14.615Z,100776.81
2022-11-29T15:27:52.783Z,100777.27
2022-11-29T15:30:28.464Z,100774.77
2022-11-29T15:32:58.565Z,100773.52
2022-11-29T15:35:28.055Z,100773.50
2022-11-29T15:37:56.375Z,100777.87
2022-11-29T15:40:37.294Z,100776.33
2022-11-29T15:43:26.427Z,100778.77
2022-11-29T15:45:57.063Z,100780.89
2022-11-29T15:48:30.736Z,100782.58
2022-11-29T15:51:06.039Z,100789.19
2022-11-29T15:54:12.780Z,100788.01
2022-11-29T15:56:54.465Z,100788.20
2022-11-29T15:59:53.725Z,100788.95
2022-11-29T16:02:25.267Z,100789.42
2022-11-29T16:04:58.208Z,100795.54
2022-11-29T16:07:32.355Z,100799.05
2022-11-29T16:10:40.391Z,100800.32
2022-11-29T16:13:33.939Z,100801.91
2022-11-29T16:16:21.608Z,100805.17
2022-11-29T16:18:50.830Z,100810.23
2022-11-29T16:21:30.673Z,100808.71
2022-11-29T16:24:10.795Z,100813.06
2022-11-29T16:26:44.013Z,100813.81
2022-11-29T16:29:34.075Z,100804.95
2022-11-29T16:32:23.882Z,100804.13
2022-11-29T16:34:52.874Z,100809.06
2022-11-29T16:37:26.314Z,100812.94
2022-11-29T16:40:00.196Z,100815.44
2022-11-29T16:42:30.707Z,100815.89
2022-11-29T16:45:09.273Z,100815.40
2022-11-29T16:47:59.313Z,100811.66
2022-11-29T16:50:32.606Z,100807.83
2022-11-29T16:53:42.209Z,100811.45
2022-11-29T16:56:15.287Z,100812.20
2022-11-29T16:59:24.862Z,100812.20
2022-11-29T17:01:34.054Z,100810.27
2022-11-29T17:04:02.191Z,100811.54
2022-11-29T17:06:30.717Z,100814.99
2022-11-29T17:08:59.758Z,100819.34
2022-11-29T17:11:27.811Z,100818.73
2022-11-29T17:13:56.053Z,100819.33
2022-11-29T17:16:24.810Z,100817.84
2022-11-29T17:18:53.738Z,100822.58
2022-11-29T17:21:24.832Z,100824.48
2022-11-29T17:23:53.391Z,100817.80
2022-11-29T17:26:22.564Z,100814.02
2022-11-29T17:28:52.013Z,100810.55
2022-11-29T17:31:24.344Z,100807.81
2022-11-29T17:33:52.563Z,100810.31
2022-11-29T17:36:21.214Z,100809.38
2022-11-29T17:38:49.096Z,100808.73
2022-11-29T17:41:20.937Z,100808.09
2022-11-29T17:43:50.429Z,100806.02
2022-11-29T17:46:30.316Z,100798.12
2022-11-29T17:49:00.335Z,100793.45
2022-11-29T17:51:51.038Z,100790.59
2022-11-29T17:54:16.772Z,100793.03
2022-11-29T17:56:44.967Z,100799.45
2022-11-29T17:59:12.809Z,100801.89
2022-11-29T18:01:40.719Z,100803.27
2022-11-29T18:04:08.631Z,100807.70
2022-11-29T18:06:39.096Z,100812.67
2022-11-29T18:09:09.578Z,100816.77
2022-11-29T18:11:47.608Z,100814.52
2022-11-29T18:14:25.283Z,100817.73
2022-11-29T18:16:53.720Z,100810.50
2022-11-29T18:19:22.773Z,100807.46
2022-11-29T18:21:51.408Z,100803.37
2022-11-29T18:24:19.680Z,100804.30
2022-11-29T18:26:47.780Z,100804.15
2022-11-29T18:29:16.021Z,100804.40
2022-11-29T18:31:45.215Z,100800.41
2022-11-29T18:34:14.547Z,100794.94
2022-11-29T18:36:47.403Z,100795.20
2022-11-29T18:39:18.384Z,100795.91
2022-11-29T18:41:48.394Z,100796.25
2022-11-29T18:44:18.918Z,100798.52
2022-11-29T18:46:47.203Z,100797.30
2022-11-29T18:49:17.207Z,100796.21
2022-11-29T18:51:46.623Z,100794.80
2022-11-29T18:54:16.634Z,100793.17
2022-11-29T18:56:45.836Z,100795.92
2022-11-29T18:59:19.127Z,100796.27
2022-11-29T19:01:48.463Z,100793.34
2022-11-29T19:04:19.150Z,100791.61
2022-11-29T19:06:47.489Z,100791.04
2022-11-29T19:09:21.667Z,100788.77
2022-11-29T19:11:50.337Z,100785.80
2022-11-29T19:14:19.196Z,100781.48
2022-11-29T19:16:49.787Z,100782.15
2022-11-29T19:19:21.365Z,100776.22
2022-11-29T19:21:49.317Z,100774.33
2022-11-29T19:24:18.687Z,100773.44
2022-11-29T19:26:49.694Z,100773.97
2022-11-29T19:29:18.051Z,100773.64
2022-11-29T19:31:46.128Z,100772.48
2022-11-29T19:34:14.134Z,100772.98
2022-11-29T19:36:43.581Z,100773.50
2022-11-29T19:39:18.031Z,100774.67
2022-11-29T19:41:47.749Z,100771.86
2022-11-29T19:44:15.951Z,100773.35
2022-11-29T19:46:48.266Z,100773.01
2022-11-29T19:49:16.259Z,100773.38
2022-11-29T19:51:44.157Z,100771.79
2022-11-29T19:54:12.421Z,100777.64
2022-11-29T19:56:40.504Z,100782.22
2022-11-29T19:59:08.902Z,100781.33
2022-11-29T20:01:41.548Z,100784.46
2022-11-29T20:04:12.720Z,100781.39
2022-11-29T20:06:41.046Z,100782.33
2022-11-29T20:09:10.842Z,100782.26
2022-11-29T20:11:38.928Z,100779.88
2022-11-29T20:14:08.231Z,100777.43
2022-11-29T20:16:38.130Z,100774.67
2022-11-29T20:19:11.067Z,100773.99
2022-11-29T20:21:48.816Z,100767.96
2022-11-29T20:24:17.817Z,100764.31
2022-11-29T20:26:47.664Z,100769.80
2022-11-29T20:29:16.604Z,100770.98
2022-11-29T20:31:49.918Z,100769.27
2022-11-29T20:34:19.971Z,100771.33
2022-11-29T20:37:12.988Z,100772.18
2022-11-29T20:39:52.972Z,100773.19
2022-11-29T20:42:38.648Z,100773.04
2022-11-29T20:45:09.114Z,100777.64
2022-11-29T20:48:11.311Z,100774.55
2022-11-29T20:50:40.443Z,100772.67
2022-11-29T20:53:32.985Z,100772.90
2022-11-29T20:56:04.543Z,100772.10
2022-11-29T20:58:33.684Z,100772.45
2022-11-29T21:01:02.935Z,100774.02
2022-11-29T21:03:31.262Z,100773.86
2022-11-29T21:06:02.994Z,100770.74
2022-11-29T21:08:31.509Z,100766.20
2022-11-29T21:11:11.520Z,100768.92
2022-11-29T21:13:39.689Z,100766.87
2022-11-29T21:16:09.984Z,100767.69
2022-11-29T21:18:38.475Z,100768.04
2022-11-29T21:21:23.877Z,100764.75
2022-11-29T21:24:38.215Z,100765.08
2022-11-29T21:27:13.563Z,100761.59
2022-11-29T21:29:42.236Z,100758.10
2022-11-29T21:32:22.190Z,100754.91
2022-11-29T21:34:50.129Z,100757.48
2022-11-29T21:37:21.831Z,100758.46
2022-11-29T21:39:51.599Z,100759.80
2022-11-29T21:42:20.454Z,100758.59
2022-11-29T21:44:48.566Z,100753.77
2022-11-29T21:47:16.731Z,100753.25
2022-11-29T21:49:46.431Z,100755.63
2022-11-29T21:52:20.714Z,100753.87
2022-11-29T21:54:50.604Z,100753.67
2022-11-29T21:57:18.766Z,100757.28
2022-11-29T21:59:46.636Z,100759.35
2022-11-29T22:02:15.002Z,100756.27
2022-11-29T22:04:43.595Z,100756.27
2022-11-29T22:07:11.642Z,100756.48
2022-11-29T22:09:39.752Z,100754.42
2022-11-29T22:12:31.805Z,100753.02
2022-11-29T22:14:55.710Z,100748.37
2022-11-29T22:17:23.918Z,100752.10
2022-11-29T22:19:51.756Z,100748.80
2022-11-29T22:22:19.856Z,100746.53
2022-11-29T22:24:48.040Z,100747.05
2022-11-29T22:27:18.495Z,100747.20
2022-11-29T22:29:46.529Z,100742.58
2022-11-29T22:32:15.011Z,100737.83
2022-11-29T22:34:42.986Z,100739.04
2022-11-29T22:37:12.485Z,100739.29
2022-11-29T22:39:40.491Z,100739.67
2022-11-29T22:42:08.410Z,100736.64
2022-11-29T22:44:36.383Z,100739.77
2022-11-29T22:47:04.290Z,100746.14
2022-11-29T22:49:33.306Z,100747.92
2022-11-29T22:52:01.216Z,100750.95
2022-11-29T22:54:29.185Z,100749.39
2022-11-29T22:56:57.036Z,100749.09
2022-11-29T22:59:24.916Z,100746.88
2022-11-29T23:01:52.984Z,100742.75
2022-11-29T23:04:21.157Z,100744.83
2022-11-29T23:06:49.234Z,100738.33
2022-11-29T23:09:20.342Z,100736.30
2022-11-29T23:11:55.795Z,100733.05
2022-11-29T23:14:24.346Z,100728.25
2022-11-29T23:16:53.044Z,100726.13
2022-11-29T23:19:22.422Z,100725.15
2022-11-29T23:21:50.574Z,100729.36
2022-11-29T23:24:18.681Z,100732.44
2022-11-29T23:26:47.825Z,100737.43
2022-11-29T23:29:18.036Z,100735.88
2022-11-29T23:31:46.983Z,100737.16
2022-11-29T23:34:15.290Z,100739.48
2022-11-29T23:36:46.908Z,100736.73
2022-11-29T23:39:17.679Z,100736.77
2022-11-29T23:41:45.594Z,100738.05
2022-11-29T23:44:13.493Z,100736.65
2022-11-29T23:46:41.562Z,100734.23
2022-11-29T23:49:09.683Z,100741.61
2022-11-29T23:51:37.649Z,100744.36
2022-11-29T23:54:05.635Z,100745.75
2022-11-29T23:56:35.650Z,100743.90
2022-11-29T23:59:03.802Z,100736.16
